sensor_id;sensor_type;location;lat;lon;timestamp;P1;durP1;ratioP1;P2;durP2;ratioP2
55647;SDS011;45266;48.756;9.246;2023-04-28T00:00:28;4.47;;;3.40;;
55647;SDS011;45266;48.756;9.246;2023-04-28T00:01:29;5.00;;;3.92;;
55647;SDS011;45266;48.756;9.246;2023-04-28T00:02:31;5.03;;;3.93;;
55647;SDS011;45266;48.756;9.246;2023-04-28T00:03:34;6.03;;;3.80;;
55647;SDS011;45266;48.756;9.246;2023-04-28T00:04:37;4.88;;;3.70;;
55647;SDS011;45266;48.756;9.246;2023-04-28T00:05:39;4.53;;;3.80;;
55647;SDS011;45266;48.756;9.246;2023-04-28T00:06:41;6.25;;;3.80;;
55647;SDS011;45266;48.756;9.246;2023-04-28T00:07:43;6.70;;;4.65;;
55647;SDS011;45266;48.756;9.246;2023-04-28T00:08:44;4.63;;;3.80;;
55647;SDS011;45266;48.756;9.246;2023-04-28T00:09:46;5.13;;;3.90;;
55647;SDS011;45266;48.756;9.246;2023-04-28T00:10:48;7.80;;;3.90;;
55647;SDS011;45266;48.756;9.246;2023-04-28T00:11:50;6.60;;;3.73;;
55647;SDS011;45266;48.756;9.246;2023-04-28T00:12:51;6.70;;;3.50;;
55647;SDS011;45266;48.756;9.246;2023-04-28T00:13:53;6.03;;;3.67;;
55647;SDS011;45266;48.756;9.246;2023-04-28T00:14:55;6.47;;;4.15;;
55647;SDS011;45266;48.756;9.246;2023-04-28T00:15:57;3.77;;;3.30;;
55647;SDS011;45266;48.756;9.246;2023-04-28T00:17:00;6.38;;;3.88;;
55647;SDS011;45266;48.756;9.246;2023-04-28T00:18:03;7.43;;;3.70;;
55647;SDS011;45266;48.756;9.246;2023-04-28T00:19:05;7.00;;;3.60;;
55647;SDS011;45266;48.756;9.246;2023-04-28T00:20:07;4.78;;;3.55;;
55647;SDS011;45266;48.756;9.246;2023-04-28T00:21:10;5.17;;;3.80;;
55647;SDS011;45266;48.756;9.246;2023-04-28T00:22:12;6.05;;;3.88;;
55647;SDS011;45266;48.756;9.246;2023-04-28T00:23:14;7.32;;;3.85;;
55647;SDS011;45266;48.756;9.246;2023-04-28T00:24:16;3.90;;;3.50;;
55647;SDS011;45266;48.756;9.246;2023-04-28T00:25:18;5.33;;;4.00;;
55647;SDS011;45266;48.756;9.246;2023-04-28T00:26:19;5.32;;;3.83;;
55647;SDS011;45266;48.756;9.246;2023-04-28T00:27:21;6.53;;;3.83;;
55647;SDS011;45266;48.756;9.246;2023-04-28T00:28:23;5.80;;;3.77;;
55647;SDS011;45266;48.756;9.246;2023-04-28T00:29:28;9.27;;;3.75;;
55647;SDS011;45266;48.756;9.246;2023-04-28T00:30:30;5.60;;;4.13;;
55647;SDS011;45266;48.756;9.246;2023-04-28T00:31:31;4.47;;;3.30;;
55647;SDS011;45266;48.756;9.246;2023-04-28T00:32:35;6.33;;;3.53;;
55647;SDS011;45266;48.756;9.246;2023-04-28T00:33:37;7.00;;;3.75;;
55647;SDS011;45266;48.756;9.246;2023-04-28T00:34:43;5.07;;;4.00;;
55647;SDS011;45266;48.756;9.246;2023-04-28T00:35:45;7.07;;;3.67;;
55647;SDS011;45266;48.756;9.246;2023-04-28T00:36:47;6.00;;;4.28;;
55647;SDS011;45266;48.756;9.246;2023-04-28T00:37:48;4.83;;;3.83;;
55647;SDS011;45266;48.756;9.246;2023-04-28T00:38:50;5.73;;;4.17;;
55647;SDS011;45266;48.756;9.246;2023-04-28T00:39:53;6.07;;;3.70;;
55647;SDS011;45266;48.756;9.246;2023-04-28T00:40:58;5.10;;;4.00;;
55647;SDS011;45266;48.756;9.246;2023-04-28T00:42:00;4.57;;;3.60;;
55647;SDS011;45266;48.756;9.246;2023-04-28T00:43:02;6.10;;;3.80;;
55647;SDS011;45266;48.756;9.246;2023-04-28T00:44:04;5.33;;;3.90;;
55647;SDS011;45266;48.756;9.246;2023-04-28T00:45:07;4.03;;;3.63;;
55647;SDS011;45266;48.756;9.246;2023-04-28T00:46:09;4.27;;;3.73;;
55647;SDS011;45266;48.756;9.246;2023-04-28T00:47:12;4.72;;;3.30;;
55647;SDS011;45266;48.756;9.246;2023-04-28T00:48:18;4.45;;;3.72;;
55647;SDS011;45266;48.756;9.246;2023-04-28T00:49:20;5.27;;;3.70;;
55647;SDS011;45266;48.756;9.246;2023-04-28T00:50:22;6.77;;;3.90;;
55647;SDS011;45266;48.756;9.246;2023-04-28T00:51:25;7.75;;;3.65;;
55647;SDS011;45266;48.756;9.246;2023-04-28T00:52:31;6.57;;;4.15;;
55647;SDS011;45266;48.756;9.246;2023-04-28T00:53:32;5.95;;;3.92;;
55647;SDS011;45266;48.756;9.246;2023-04-28T00:54:34;5.72;;;3.78;;
55647;SDS011;45266;48.756;9.246;2023-04-28T00:55:38;6.27;;;3.97;;
55647;SDS011;45266;48.756;9.246;2023-04-28T00:56:40;5.53;;;3.77;;
55647;SDS011;45266;48.756;9.246;2023-04-28T00:57:43;4.97;;;3.63;;
55647;SDS011;45266;48.756;9.246;2023-04-28T00:58:46;5.15;;;3.70;;
55647;SDS011;45266;48.756;9.246;2023-04-28T00:59:48;5.88;;;4.13;;
55647;SDS011;45266;48.756;9.246;2023-04-28T01:00:49;5.60;;;3.80;;
55647;SDS011;45266;48.756;9.246;2023-04-28T01:01:51;5.43;;;3.90;;
55647;SDS011;45266;48.756;9.246;2023-04-28T01:02:54;4.13;;;3.60;;
55647;SDS011;45266;48.756;9.246;2023-04-28T01:03:57;6.45;;;3.55;;
55647;SDS011;45266;48.756;9.246;2023-04-28T01:04:59;7.03;;;4.20;;
55647;SDS011;45266;48.756;9.246;2023-04-28T01:06:05;4.82;;;3.75;;
55647;SDS011;45266;48.756;9.246;2023-04-28T01:07:08;4.45;;;3.50;;
55647;SDS011;45266;48.756;9.246;2023-04-28T01:08:10;4.35;;;3.70;;
55647;SDS011;45266;48.756;9.246;2023-04-28T01:09:12;4.67;;;3.83;;
55647;SDS011;45266;48.756;9.246;2023-04-28T01:10:14;6.65;;;4.20;;
55647;SDS011;45266;48.756;9.246;2023-04-28T01:11:15;4.90;;;3.83;;
55647;SDS011;45266;48.756;9.246;2023-04-28T01:12:18;4.75;;;4.25;;
55647;SDS011;45266;48.756;9.246;2023-04-28T01:13:20;6.75;;;3.78;;
55647;SDS011;45266;48.756;9.246;2023-04-28T01:14:22;10.80;;;4.27;;
55647;SDS011;45266;48.756;9.246;2023-04-28T01:15:23;9.77;;;4.05;;
55647;SDS011;45266;48.756;9.246;2023-04-28T01:16:27;4.90;;;3.90;;
55647;SDS011;45266;48.756;9.246;2023-04-28T01:17:28;6.20;;;4.10;;
55647;SDS011;45266;48.756;9.246;2023-04-28T01:18:30;5.22;;;3.58;;
55647;SDS011;45266;48.756;9.246;2023-04-28T01:19:32;5.95;;;4.10;;
55647;SDS011;45266;48.756;9.246;2023-04-28T01:20:34;8.60;;;4.00;;
55647;SDS011;45266;48.756;9.246;2023-04-28T02:09:14;5.80;;;3.90;;
55647;SDS011;45266;48.756;9.246;2023-04-28T02:10:16;9.33;;;3.67;;
55647;SDS011;45266;48.756;9.246;2023-04-28T02:11:17;4.03;;;3.63;;
55647;SDS011;45266;48.756;9.246;2023-04-28T02:12:19;3.80;;;3.30;;
55647;SDS011;45266;48.756;9.246;2023-04-28T02:13:21;5.90;;;3.70;;
55647;SDS011;45266;48.756;9.246;2023-04-28T02:14:23;4.43;;;3.77;;
55647;SDS011;45266;48.756;9.246;2023-04-28T02:15:24;4.97;;;3.80;;
55647;SDS011;45266;48.756;9.246;2023-04-28T02:16:26;5.28;;;4.20;;
55647;SDS011;45266;48.756;9.246;2023-04-28T02:17:28;5.22;;;3.55;;
55647;SDS011;45266;48.756;9.246;2023-04-28T02:18:31;5.17;;;3.90;;
55647;SDS011;45266;48.756;9.246;2023-04-28T02:19:33;4.82;;;3.70;;
55647;SDS011;45266;48.756;9.246;2023-04-28T02:27:43;6.97;;;4.03;;
55647;SDS011;45266;48.756;9.246;2023-04-28T02:28:45;5.57;;;3.80;;
55647;SDS011;45266;48.756;9.246;2023-04-28T02:29:46;5.13;;;3.50;;
55647;SDS011;45266;48.756;9.246;2023-04-28T02:30:48;6.73;;;3.83;;
55647;SDS011;45266;48.756;9.246;2023-04-28T02:31:50;6.25;;;4.28;;
55647;SDS011;45266;48.756;9.246;2023-04-28T02:32:52;4.93;;;4.32;;
55647;SDS011;45266;48.756;9.246;2023-04-28T02:33:54;5.70;;;3.90;;
55647;SDS011;45266;48.756;9.246;2023-04-28T02:34:56;4.38;;;3.97;;
55647;SDS011;45266;48.756;9.246;2023-04-28T02:35:58;7.88;;;4.05;;
55647;SDS011;45266;48.756;9.246;2023-04-28T02:37:00;5.35;;;4.00;;
55647;SDS011;45266;48.756;9.246;2023-04-28T02:38:03;7.43;;;3.75;;
55647;SDS011;45266;48.756;9.246;2023-04-28T02:39:04;4.75;;;3.50;;
55647;SDS011;45266;48.756;9.246;2023-04-28T02:40:06;5.85;;;3.65;;
55647;SDS011;45266;48.756;9.246;2023-04-28T02:41:08;5.57;;;3.90;;
55647;SDS011;45266;48.756;9.246;2023-04-28T02:42:10;4.72;;;3.63;;
55647;SDS011;45266;48.756;9.246;2023-04-28T02:43:12;6.65;;;3.95;;
55647;SDS011;45266;48.756;9.246;2023-04-28T02:44:14;5.25;;;3.53;;
55647;SDS011;45266;48.756;9.246;2023-04-28T02:45:16;7.55;;;3.60;;
55647;SDS011;45266;48.756;9.246;2023-04-28T02:46:18;6.10;;;3.80;;
55647;SDS011;45266;48.756;9.246;2023-04-28T02:47:19;5.55;;;4.10;;
55647;SDS011;45266;48.756;9.246;2023-04-28T02:48:22;5.60;;;4.27;;
55647;SDS011;45266;48.756;9.246;2023-04-28T02:49:24;6.68;;;4.10;;
55647;SDS011;45266;48.756;9.246;2023-04-28T02:50:26;4.53;;;4.07;;
55647;SDS011;45266;48.756;9.246;2023-04-28T02:51:28;5.73;;;3.77;;
55647;SDS011;45266;48.756;9.246;2023-04-28T02:52:29;4.70;;;3.78;;
55647;SDS011;45266;48.756;9.246;2023-04-28T02:53:31;4.50;;;3.78;;
55647;SDS011;45266;48.756;9.246;2023-04-28T02:54:33;5.60;;;3.55;;
55647;SDS011;45266;48.756;9.246;2023-04-28T02:55:37;6.10;;;4.00;;
55647;SDS011;45266;48.756;9.246;2023-04-28T02:56:38;4.83;;;3.97;;
55647;SDS011;45266;48.756;9.246;2023-04-28T02:57:41;5.45;;;3.20;;
55647;SDS011;45266;48.756;9.246;2023-04-28T03:00:22;5.13;;;3.78;;
55647;SDS011;45266;48.756;9.246;2023-04-28T03:01:24;4.25;;;3.55;;
55647;SDS011;45266;48.756;9.246;2023-04-28T03:02:26;5.20;;;4.40;;
55647;SDS011;45266;48.756;9.246;2023-04-28T03:03:28;6.70;;;3.90;;
55647;SDS011;45266;48.756;9.246;2023-04-28T03:04:30;5.82;;;3.80;;
55647;SDS011;45266;48.756;9.246;2023-04-28T03:05:32;4.90;;;4.00;;
55647;SDS011;45266;48.756;9.246;2023-04-28T03:06:34;5.97;;;3.90;;
55647;SDS011;45266;48.756;9.246;2023-04-28T03:07:36;8.07;;;3.70;;
55647;SDS011;45266;48.756;9.246;2023-04-28T03:08:38;6.78;;;4.10;;
55647;SDS011;45266;48.756;9.246;2023-04-28T03:09:39;4.75;;;3.78;;
55647;SDS011;45266;48.756;9.246;2023-04-28T03:10:42;7.35;;;4.10;;
55647;SDS011;45266;48.756;9.246;2023-04-28T03:11:44;4.78;;;3.67;;
55647;SDS011;45266;48.756;9.246;2023-04-28T03:12:46;5.00;;;3.72;;
55647;SDS011;45266;48.756;9.246;2023-04-28T03:13:47;7.40;;;4.18;;
55647;SDS011;45266;48.756;9.246;2023-04-28T03:14:49;7.22;;;3.80;;
55647;SDS011;45266;48.756;9.246;2023-04-28T03:15:51;6.75;;;4.03;;
55647;SDS011;45266;48.756;9.246;2023-04-28T03:16:53;7.50;;;4.30;;
55647;SDS011;45266;48.756;9.246;2023-04-28T03:17:55;7.40;;;4.43;;
55647;SDS011;45266;48.756;9.246;2023-04-28T03:18:57;7.60;;;4.60;;
55647;SDS011;45266;48.756;9.246;2023-04-28T03:19:59;6.00;;;4.40;;
55647;SDS011;45266;48.756;9.246;2023-04-28T03:21:00;5.72;;;4.65;;
55647;SDS011;45266;48.756;9.246;2023-04-28T03:22:02;5.82;;;4.20;;
55647;SDS011;45266;48.756;9.246;2023-04-28T03:23:04;6.60;;;4.38;;
55647;SDS011;45266;48.756;9.246;2023-04-28T03:24:06;5.90;;;4.20;;
55647;SDS011;45266;48.756;9.246;2023-04-28T03:25:07;6.75;;;4.45;;
55647;SDS011;45266;48.756;9.246;2023-04-28T03:26:09;6.85;;;4.78;;
55647;SDS011;45266;48.756;9.246;2023-04-28T03:27:11;5.63;;;4.53;;
55647;SDS011;45266;48.756;9.246;2023-04-28T03:28:13;5.82;;;5.22;;
55647;SDS011;45266;48.756;9.246;2023-04-28T03:29:16;5.82;;;5.22;;
55647;SDS011;45266;48.756;9.246;2023-04-28T03:30:18;8.18;;;5.35;;
55647;SDS011;45266;48.756;9.246;2023-04-28T03:31:20;9.75;;;5.00;;
55647;SDS011;45266;48.756;9.246;2023-04-28T03:32:21;7.78;;;5.47;;
55647;SDS011;45266;48.756;9.246;2023-04-28T03:33:23;9.20;;;5.20;;
55647;SDS011;45266;48.756;9.246;2023-04-28T03:34:25;7.75;;;4.70;;
55647;SDS011;45266;48.756;9.246;2023-04-28T03:35:27;6.57;;;4.72;;
55647;SDS011;45266;48.756;9.246;2023-04-28T03:36:29;5.72;;;4.50;;
55647;SDS011;45266;48.756;9.246;2023-04-28T03:37:32;5.80;;;5.18;;
55647;SDS011;45266;48.756;9.246;2023-04-28T03:38:33;7.75;;;4.93;;
55647;SDS011;45266;48.756;9.246;2023-04-28T03:39:35;7.65;;;4.90;;
55647;SDS011;45266;48.756;9.246;2023-04-28T03:40:37;6.80;;;5.00;;
55647;SDS011;45266;48.756;9.246;2023-04-28T03:41:39;8.18;;;5.40;;
55647;SDS011;45266;48.756;9.246;2023-04-28T03:42:41;5.70;;;5.00;;
55647;SDS011;45266;48.756;9.246;2023-04-28T03:43:43;6.57;;;5.00;;
55647;SDS011;45266;48.756;9.246;2023-04-28T03:44:44;8.63;;;5.63;;
55647;SDS011;45266;48.756;9.246;2023-04-28T03:45:46;5.55;;;5.03;;
55647;SDS011;45266;48.756;9.246;2023-04-28T03:46:49;8.00;;;5.73;;
55647;SDS011;45266;48.756;9.246;2023-04-28T03:47:51;6.60;;;5.18;;
55647;SDS011;45266;48.756;9.246;2023-04-28T03:48:53;7.87;;;5.07;;
55647;SDS011;45266;48.756;9.246;2023-04-28T03:49:55;6.65;;;5.05;;
55647;SDS011;45266;48.756;9.246;2023-04-28T03:50:58;7.80;;;5.37;;
55647;SDS011;45266;48.756;9.246;2023-04-28T03:54:23;8.27;;;6.07;;
55647;SDS011;45266;48.756;9.246;2023-04-28T03:55:25;7.57;;;4.53;;
55647;SDS011;45266;48.756;9.246;2023-04-28T03:56:27;6.93;;;5.60;;
55647;SDS011;45266;48.756;9.246;2023-04-28T03:57:29;6.85;;;6.07;;
55647;SDS011;45266;48.756;9.246;2023-04-28T03:58:31;8.02;;;5.30;;
55647;SDS011;45266;48.756;9.246;2023-04-28T03:59:32;7.93;;;5.50;;
55647;SDS011;45266;48.756;9.246;2023-04-28T04:00:34;7.35;;;5.38;;
55647;SDS011;45266;48.756;9.246;2023-04-28T04:01:36;9.93;;;5.55;;
55647;SDS011;45266;48.756;9.246;2023-04-28T04:02:38;7.10;;;5.20;;
55647;SDS011;45266;48.756;9.246;2023-04-28T04:03:40;6.75;;;5.97;;
55647;SDS011;45266;48.756;9.246;2023-04-28T04:04:42;6.60;;;5.50;;
55647;SDS011;45266;48.756;9.246;2023-04-28T04:05:44;7.78;;;5.72;;
55647;SDS011;45266;48.756;9.246;2023-04-28T04:06:46;7.37;;;5.53;;
55647;SDS011;45266;48.756;9.246;2023-04-28T04:07:48;8.70;;;5.50;;
55647;SDS011;45266;48.756;9.246;2023-04-28T04:08:50;9.53;;;5.93;;
55647;SDS011;45266;48.756;9.246;2023-04-28T04:09:52;6.13;;;5.43;;
55647;SDS011;45266;48.756;9.246;2023-04-28T04:10:54;8.15;;;5.55;;
55647;SDS011;45266;48.756;9.246;2023-04-28T04:11:56;7.10;;;5.65;;
55647;SDS011;45266;48.756;9.246;2023-04-28T04:12:58;9.02;;;5.55;;
55647;SDS011;45266;48.756;9.246;2023-04-28T04:14:00;8.02;;;5.82;;
55647;SDS011;45266;48.756;9.246;2023-04-28T04:15:02;6.10;;;5.50;;
55647;SDS011;45266;48.756;9.246;2023-04-28T04:16:04;6.60;;;5.30;;
55647;SDS011;45266;48.756;9.246;2023-04-28T04:17:07;6.57;;;5.28;;
55647;SDS011;45266;48.756;9.246;2023-04-28T04:18:09;5.40;;;4.90;;
55647;SDS011;45266;48.756;9.246;2023-04-28T04:19:11;6.13;;;4.90;;
55647;SDS011;45266;48.756;9.246;2023-04-28T04:20:13;7.75;;;5.57;;
55647;SDS011;45266;48.756;9.246;2023-04-28T04:21:15;7.13;;;5.37;;
55647;SDS011;45266;48.756;9.246;2023-04-28T04:22:17;6.10;;;4.93;;
55647;SDS011;45266;48.756;9.246;2023-04-28T04:23:18;6.20;;;5.60;;
55647;SDS011;45266;48.756;9.246;2023-04-28T04:24:20;8.03;;;5.83;;
55647;SDS011;45266;48.756;9.246;2023-04-28T04:25:22;7.80;;;5.47;;
55647;SDS011;45266;48.756;9.246;2023-04-28T04:26:24;7.15;;;5.55;;
55647;SDS011;45266;48.756;9.246;2023-04-28T04:27:25;7.15;;;5.57;;
55647;SDS011;45266;48.756;9.246;2023-04-28T04:28:27;7.97;;;5.30;;
55647;SDS011;45266;48.756;9.246;2023-04-28T04:29:29;8.57;;;5.40;;
55647;SDS011;45266;48.756;9.246;2023-04-28T04:30:31;9.45;;;5.50;;
55647;SDS011;45266;48.756;9.246;2023-04-28T04:31:33;6.70;;;5.33;;
55647;SDS011;45266;48.756;9.246;2023-04-28T04:32:35;8.10;;;5.65;;
55647;SDS011;45266;48.756;9.246;2023-04-28T04:33:37;5.88;;;5.05;;
55647;SDS011;45266;48.756;9.246;2023-04-28T04:34:39;6.95;;;5.68;;
55647;SDS011;45266;48.756;9.246;2023-04-28T04:35:40;8.48;;;5.60;;
55647;SDS011;45266;48.756;9.246;2023-04-28T04:36:42;7.23;;;5.50;;
55647;SDS011;45266;48.756;9.246;2023-04-28T04:37:44;10.55;;;5.38;;
55647;SDS011;45266;48.756;9.246;2023-04-28T04:38:46;8.75;;;5.47;;
55647;SDS011;45266;48.756;9.246;2023-04-28T04:39:47;11.15;;;5.50;;
55647;SDS011;45266;48.756;9.246;2023-04-28T04:40:49;8.02;;;5.25;;
55647;SDS011;45266;48.756;9.246;2023-04-28T04:41:51;7.25;;;5.40;;
55647;SDS011;45266;48.756;9.246;2023-04-28T04:42:53;6.15;;;5.00;;
55647;SDS011;45266;48.756;9.246;2023-04-28T04:43:55;6.95;;;5.20;;
55647;SDS011;45266;48.756;9.246;2023-04-28T04:44:57;7.13;;;5.25;;
55647;SDS011;45266;48.756;9.246;2023-04-28T04:45:59;5.40;;;4.57;;
55647;SDS011;45266;48.756;9.246;2023-04-28T04:47:01;7.57;;;4.90;;
55647;SDS011;45266;48.756;9.246;2023-04-28T04:48:03;9.27;;;6.63;;
55647;SDS011;45266;48.756;9.246;2023-04-28T04:49:05;5.97;;;5.07;;
55647;SDS011;45266;48.756;9.246;2023-04-28T04:50:07;6.53;;;5.63;;
55647;SDS011;45266;48.756;9.246;2023-04-28T04:51:10;7.22;;;4.95;;
55647;SDS011;45266;48.756;9.246;2023-04-28T04:52:12;5.95;;;5.07;;
55647;SDS011;45266;48.756;9.246;2023-04-28T04:53:14;7.17;;;5.27;;
55647;SDS011;45266;48.756;9.246;2023-04-28T04:54:16;6.78;;;5.35;;
55647;SDS011;45266;48.756;9.246;2023-04-28T04:55:21;5.43;;;4.88;;
55647;SDS011;45266;48.756;9.246;2023-04-28T04:56:23;6.78;;;5.07;;
55647;SDS011;45266;48.756;9.246;2023-04-28T04:57:24;7.47;;;5.53;;
55647;SDS011;45266;48.756;9.246;2023-04-28T04:58:26;7.32;;;5.30;;
55647;SDS011;45266;48.756;9.246;2023-04-28T04:59:28;8.15;;;5.25;;
55647;SDS011;45266;48.756;9.246;2023-04-28T05:00:30;7.65;;;5.28;;
55647;SDS011;45266;48.756;9.246;2023-04-28T05:01:32;7.20;;;5.15;;
55647;SDS011;45266;48.756;9.246;2023-04-28T05:02:34;9.73;;;5.80;;
55647;SDS011;45266;48.756;9.246;2023-04-28T05:03:36;11.13;;;5.50;;
55647;SDS011;45266;48.756;9.246;2023-04-28T05:04:38;7.28;;;5.50;;
55647;SDS011;45266;48.756;9.246;2023-04-28T05:05:40;6.25;;;5.38;;
55647;SDS011;45266;48.756;9.246;2023-04-28T05:06:45;5.82;;;5.22;;
55647;SDS011;45266;48.756;9.246;2023-04-28T05:07:46;7.78;;;5.60;;
55647;SDS011;45266;48.756;9.246;2023-04-28T05:08:48;6.30;;;5.35;;
55647;SDS011;45266;48.756;9.246;2023-04-28T05:09:50;6.47;;;5.43;;
55647;SDS011;45266;48.756;9.246;2023-04-28T05:10:52;7.40;;;5.37;;
55647;SDS011;45266;48.756;9.246;2023-04-28T05:11:53;7.93;;;5.80;;
55647;SDS011;45266;48.756;9.246;2023-04-28T05:12:56;7.43;;;5.70;;
55647;SDS011;45266;48.756;9.246;2023-04-28T05:13:57;10.00;;;5.50;;
55647;SDS011;45266;48.756;9.246;2023-04-28T05:14:59;5.97;;;5.37;;
55647;SDS011;45266;48.756;9.246;2023-04-28T05:16:01;6.20;;;5.18;;
55647;SDS011;45266;48.756;9.246;2023-04-28T05:17:03;7.07;;;5.38;;
55647;SDS011;45266;48.756;9.246;2023-04-28T05:18:05;9.32;;;5.47;;
55647;SDS011;45266;48.756;9.246;2023-04-28T05:19:11;6.50;;;5.33;;
55647;SDS011;45266;48.756;9.246;2023-04-28T05:43:55;9.07;;;6.57;;
55647;SDS011;45266;48.756;9.246;2023-04-28T05:44:56;8.10;;;5.97;;
55647;SDS011;45266;48.756;9.246;2023-04-28T05:45:59;10.20;;;5.78;;
55647;SDS011;45266;48.756;9.246;2023-04-28T05:47:01;8.18;;;6.20;;
55647;SDS011;45266;48.756;9.246;2023-04-28T05:48:02;7.72;;;6.93;;
55647;SDS011;45266;48.756;9.246;2023-04-28T05:49:05;9.10;;;7.68;;
55647;SDS011;45266;48.756;9.246;2023-04-28T06:03:37;11.32;;;8.20;;
55647;SDS011;45266;48.756;9.246;2023-04-28T06:04:42;10.43;;;8.33;;
55647;SDS011;45266;48.756;9.246;2023-04-28T06:05:45;13.00;;;9.47;;
55647;SDS011;45266;48.756;9.246;2023-04-28T06:06:47;12.45;;;8.60;;
55647;SDS011;45266;48.756;9.246;2023-04-28T06:07:49;13.40;;;9.17;;
55647;SDS011;45266;48.756;9.246;2023-04-28T06:08:52;13.18;;;8.88;;
55647;SDS011;45266;48.756;9.246;2023-04-28T06:09:54;12.77;;;9.32;;
55647;SDS011;45266;48.756;9.246;2023-04-28T06:10:56;10.65;;;9.15;;
55647;SDS011;45266;48.756;9.246;2023-04-28T06:11:58;12.45;;;9.65;;
55647;SDS011;45266;48.756;9.246;2023-04-28T06:12:59;14.68;;;9.25;;
55647;SDS011;45266;48.756;9.246;2023-04-28T06:14:02;10.70;;;9.20;;
55647;SDS011;45266;48.756;9.246;2023-04-28T06:15:05;9.90;;;8.63;;
55647;SDS011;45266;48.756;9.246;2023-04-28T06:16:07;11.30;;;8.48;;
55647;SDS011;45266;48.756;9.246;2023-04-28T06:17:09;13.57;;;9.10;;
55647;SDS011;45266;48.756;9.246;2023-04-28T06:18:11;10.68;;;8.68;;
55647;SDS011;45266;48.756;9.246;2023-04-28T06:19:13;11.45;;;8.30;;
55647;SDS011;45266;48.756;9.246;2023-04-28T06:20:16;10.68;;;8.48;;
55647;SDS011;45266;48.756;9.246;2023-04-28T06:21:17;10.30;;;8.60;;
55647;SDS011;45266;48.756;9.246;2023-04-28T06:22:21;10.20;;;8.63;;
55647;SDS011;45266;48.756;9.246;2023-04-28T06:23:23;11.80;;;8.93;;
55647;SDS011;45266;48.756;9.246;2023-04-28T06:24:25;9.98;;;8.95;;
55647;SDS011;45266;48.756;9.246;2023-04-28T06:25:27;9.90;;;8.23;;
55647;SDS011;45266;48.756;9.246;2023-04-28T06:26:29;11.00;;;8.00;;
55647;SDS011;45266;48.756;9.246;2023-04-28T06:27:31;10.05;;;8.32;;
55647;SDS011;45266;48.756;9.246;2023-04-28T06:28:33;13.37;;;9.10;;
55647;SDS011;45266;48.756;9.246;2023-04-28T06:29:35;10.80;;;8.45;;
55647;SDS011;45266;48.756;9.246;2023-04-28T06:30:36;10.50;;;8.55;;
55647;SDS011;45266;48.756;9.246;2023-04-28T06:31:38;13.75;;;9.05;;
55647;SDS011;45266;48.756;9.246;2023-04-28T06:32:40;17.50;;;9.55;;
55647;SDS011;45266;48.756;9.246;2023-04-28T06:33:42;11.80;;;9.07;;
55647;SDS011;45266;48.756;9.246;2023-04-28T06:34:44;12.32;;;8.70;;
55647;SDS011;45266;48.756;9.246;2023-04-28T06:35:45;12.68;;;8.98;;
55647;SDS011;45266;48.756;9.246;2023-04-28T07:15:02;13.90;;;9.20;;
55647;SDS011;45266;48.756;9.246;2023-04-28T07:16:04;14.93;;;10.15;;
55647;SDS011;45266;48.756;9.246;2023-04-28T07:17:06;12.15;;;10.48;;
55647;SDS011;45266;48.756;9.246;2023-04-28T07:18:08;12.90;;;10.15;;
55647;SDS011;45266;48.756;9.246;2023-04-28T07:19:10;14.07;;;10.53;;
55647;SDS011;45266;48.756;9.246;2023-04-28T07:20:13;14.93;;;10.33;;
55647;SDS011;45266;48.756;9.246;2023-04-28T07:21:15;15.60;;;10.93;;
55647;SDS011;45266;48.756;9.246;2023-04-28T07:22:16;13.98;;;10.43;;
55647;SDS011;45266;48.756;9.246;2023-04-28T07:23:18;15.07;;;10.15;;
55647;SDS011;45266;48.756;9.246;2023-04-28T07:24:20;12.98;;;10.30;;
55647;SDS011;45266;48.756;9.246;2023-04-28T07:25:23;12.75;;;10.15;;
55647;SDS011;45266;48.756;9.246;2023-04-28T07:26:25;13.27;;;10.67;;
55647;SDS011;45266;48.756;9.246;2023-04-28T07:27:27;13.30;;;9.93;;
55647;SDS011;45266;48.756;9.246;2023-04-28T07:28:29;11.80;;;10.27;;
55647;SDS011;45266;48.756;9.246;2023-04-28T07:29:31;14.65;;;10.40;;
55647;SDS011;45266;48.756;9.246;2023-04-28T07:30:35;13.57;;;10.80;;
55647;SDS011;45266;48.756;9.246;2023-04-28T07:31:37;14.02;;;10.63;;
55647;SDS011;45266;48.756;9.246;2023-04-28T07:32:38;12.68;;;10.32;;
55647;SDS011;45266;48.756;9.246;2023-04-28T07:33:40;12.77;;;10.05;;
55647;SDS011;45266;48.756;9.246;2023-04-28T07:34:42;14.30;;;10.25;;
55647;SDS011;45266;48.756;9.246;2023-04-28T07:35:44;13.57;;;10.70;;
55647;SDS011;45266;48.756;9.246;2023-04-28T07:36:46;14.18;;;9.68;;
55647;SDS011;45266;48.756;9.246;2023-04-28T07:37:47;15.50;;;10.13;;
55647;SDS011;45266;48.756;9.246;2023-04-28T07:38:49;11.48;;;9.15;;
55647;SDS011;45266;48.756;9.246;2023-04-28T07:39:51;12.73;;;9.25;;
55647;SDS011;45266;48.756;9.246;2023-04-28T07:40:53;13.63;;;9.40;;
55647;SDS011;45266;48.756;9.246;2023-04-28T07:41:55;11.98;;;9.07;;
55647;SDS011;45266;48.756;9.246;2023-04-28T07:42:58;11.80;;;8.63;;
55647;SDS011;45266;48.756;9.246;2023-04-28T07:43:59;12.23;;;9.07;;
55647;SDS011;45266;48.756;9.246;2023-04-28T07:45:01;12.02;;;8.90;;
55647;SDS011;45266;48.756;9.246;2023-04-28T07:46:05;10.20;;;8.27;;
55647;SDS011;45266;48.756;9.246;2023-04-28T07:47:08;10.85;;;9.00;;
55647;SDS011;45266;48.756;9.246;2023-04-28T07:48:10;10.82;;;8.55;;
55647;SDS011;45266;48.756;9.246;2023-04-28T07:49:12;10.75;;;7.85;;
55647;SDS011;45266;48.756;9.246;2023-04-28T07:50:14;10.23;;;8.93;;
55647;SDS011;45266;48.756;9.246;2023-04-28T07:51:17;10.27;;;9.18;;
55647;SDS011;45266;48.756;9.246;2023-04-28T07:52:19;10.73;;;8.43;;
55647;SDS011;45266;48.756;9.246;2023-04-28T07:53:20;10.98;;;9.15;;
55647;SDS011;45266;48.756;9.246;2023-04-28T07:54:22;12.88;;;8.88;;
55647;SDS011;45266;48.756;9.246;2023-04-28T07:55:25;11.73;;;8.93;;
55647;SDS011;45266;48.756;9.246;2023-04-28T07:56:27;10.77;;;8.90;;
55647;SDS011;45266;48.756;9.246;2023-04-28T07:57:28;10.55;;;9.32;;
55647;SDS011;45266;48.756;9.246;2023-04-28T07:58:30;13.65;;;9.73;;
55647;SDS011;45266;48.756;9.246;2023-04-28T07:59:32;13.38;;;9.00;;
55647;SDS011;45266;48.756;9.246;2023-04-28T08:00:34;10.73;;;8.65;;
55647;SDS011;45266;48.756;9.246;2023-04-28T08:01:36;11.88;;;8.70;;
55647;SDS011;45266;48.756;9.246;2023-04-28T08:02:38;11.90;;;8.43;;
55647;SDS011;45266;48.756;9.246;2023-04-28T08:03:40;10.55;;;8.35;;
55647;SDS011;45266;48.756;9.246;2023-04-28T08:04:42;11.95;;;9.15;;
55647;SDS011;45266;48.756;9.246;2023-04-28T08:05:44;10.53;;;8.80;;
55647;SDS011;45266;48.756;9.246;2023-04-28T08:06:46;10.38;;;8.48;;
55647;SDS011;45266;48.756;9.246;2023-04-28T08:07:47;12.80;;;8.93;;
55647;SDS011;45266;48.756;9.246;2023-04-28T08:08:49;12.23;;;8.70;;
55647;SDS011;45266;48.756;9.246;2023-04-28T08:09:51;12.70;;;9.82;;
55647;SDS011;45266;48.756;9.246;2023-04-28T08:10:54;14.65;;;8.90;;
55647;SDS011;45266;48.756;9.246;2023-04-28T08:11:55;11.77;;;9.25;;
55647;SDS011;45266;48.756;9.246;2023-04-28T08:12:59;12.05;;;9.18;;
55647;SDS011;45266;48.756;9.246;2023-04-28T08:14:01;12.85;;;10.27;;
55647;SDS011;45266;48.756;9.246;2023-04-28T08:15:03;10.60;;;9.07;;
55647;SDS011;45266;48.756;9.246;2023-04-28T08:16:06;11.40;;;10.10;;
55647;SDS011;45266;48.756;9.246;2023-04-28T08:17:07;15.20;;;9.32;;
55647;SDS011;45266;48.756;9.246;2023-04-28T08:18:09;11.23;;;9.05;;
55647;SDS011;45266;48.756;9.246;2023-04-28T08:19:11;11.90;;;9.85;;
55647;SDS011;45266;48.756;9.246;2023-04-28T08:20:13;13.13;;;9.52;;
55647;SDS011;45266;48.756;9.246;2023-04-28T08:21:23;10.98;;;9.15;;
55647;SDS011;45266;48.756;9.246;2023-04-28T08:22:25;12.27;;;9.77;;
55647;SDS011;45266;48.756;9.246;2023-04-28T08:23:26;13.20;;;9.93;;
55647;SDS011;45266;48.756;9.246;2023-04-28T08:24:30;11.93;;;9.80;;
55647;SDS011;45266;48.756;9.246;2023-04-28T08:25:34;12.55;;;8.95;;
55647;SDS011;45266;48.756;9.246;2023-04-28T08:26:36;10.82;;;9.10;;